Latest Weather Observations for Trepell

IDQ60801

Issued at 4:05 pm EST Monday 28 July 2014 (issued every 30 minutes, with the page automatically refreshed every 10 minutes)

About weather observations | Map of weather stations | Latest weather observations for QLD | Other Formats
Station Details ID: 037036 Name: TREPELL AIRPORT Lat: -21.84 Lon: 140.89 Height: 266.2 m
Data from the previous 72 hours. | See also: Recent months at Trepell
Date/Time
EST
Temp
°C
App
Temp
°C
Dew
Point
Rel
Hum
%
Delta-T
°C
Wind Press
QNH
hPa
Press
MSL
hPa
Rain
since 9 am
mm
Dir
 
Spd
km/h
Gust
km/h
Spd
kts
Gust
kts
28/04:00pm 28.9 26.3 3.0 19 13.1 SSW 6 19 3 10 1017.6 - 0.0
28/03:30pm 27.4 23.7 2.5 20 12.3 ESE 11 20 6 11 1017.7 - 0.0
28/03:00pm 27.8 25.1 2.8 20 12.5 NNW 6 13 3 7 1018.0 1017.6 0.0
28/02:30pm 28.1 25.0 3.7 21 12.4 W 9 19 5 10 1018.3 - 0.0
28/02:00pm 27.5 24.3 3.2 21 12.2 NNW 9 13 5 7 1018.7 - 0.0
28/01:30pm 27.2 24.6 3.0 21 12.1 W 6 15 3 8 1019.4 - 0.0
28/01:00pm 27.5 24.5 3.9 22 12.0 NE 9 17 5 9 1019.9 - 0.0
28/12:30pm 26.7 23.1 3.2 22 11.8 SE 11 17 6 9 1020.8 - 0.0
28/12:00pm 26.9 23.8 3.4 22 11.8 ENE 9 19 5 10 1021.2 1020.8 0.0
28/11:30am 26.1 22.6 3.4 23 11.3 ESE 11 17 6 9 1021.8 - 0.0
28/11:00am 25.1 21.1 3.1 24 10.9 SE 13 19 7 10 1022.3 - 0.0
28/10:30am 23.2 18.8 0.3 22 10.6 SE 13 17 7 9 1022.4 - 0.0
28/10:00am 21.3 17.5 -0.6 23 9.8 SE 9 13 5 7 1022.7 - 0.0
28/09:30am 19.4 15.5 -1.7 24 9.1 SSE 9 13 5 7 1022.7 - 0.0
28/09:00am 17.8 13.8 -2.5 25 8.4 S 9 13 5 7 1022.5 1022.1 0.0
28/08:30am 16.1 12.4 -2.9 27 7.7 SW 7 11 4 6 1022.3 - 0.0
28/08:00am 14.1 10.4 -3.2 30 6.9 WSW 7 9 4 5 1022.1 - 0.0
28/07:30am 12.4 8.3 -3.4 33 6.1 W 9 11 5 6 1021.9 - 0.0
28/07:00am 12.3 8.1 -3.5 33 6.1 WSW 9 11 5 6 1021.6 - 0.0
28/06:30am 11.7 7.1 -4.0 33 6.0 W 11 13 6 7 1021.4 - 0.0
28/06:00am 11.6 7.4 -4.1 33 5.9 W 9 9 5 5 1021.1 1020.7 0.0
28/05:30am 11.5 6.9 -4.2 33 5.9 W 11 13 6 7 1020.9 - 0.0
28/05:00am 12.7 8.5 -3.5 32 6.3 WSW 9 11 5 6 1020.9 - 0.0
28/04:30am 12.9 8.3 -3.8 31 6.4 WSW 11 13 6 7 1020.8 - 0.0
28/04:00am 12.5 7.6 -3.7 32 6.2 WSW 13 17 7 9 1020.7 - 0.0
28/03:30am 12.6 8.0 -4.1 31 6.4 SW 11 13 6 7 1020.9 - 0.0
28/03:00am 12.5 7.5 -4.1 31 6.3 SW 13 15 7 8 1020.9 1020.5 0.0
28/02:30am 13.4 8.8 -3.8 30 6.7 SW 11 13 6 7 1021.0 - 0.0
28/02:00am 13.8 9.6 -3.9 29 6.9 SW 9 11 5 6 1021.4 - 0.0
28/01:30am 13.8 9.2 -3.9 29 6.9 SW 11 13 6 7 1021.5 - 0.0
28/01:00am 14.0 9.1 -3.7 29 6.9 SSW 13 15 7 8 1021.7 - 0.0
28/12:30am 15.1 10.9 -3.7 27 7.4 SSW 9 9 5 5 1022.0 - 0.0
28/12:00am 15.8 11.3 -3.1 27 7.6 SSW 11 15 6 8 1022.2 1021.8 0.0
 
Date/Time
EST
Temp
°C
App
Temp
°C
Dew
Point
Rel
Hum
%
Delta-T
°C
Wind Press
QNH
hPa
Press
MSL
hPa
Rain
since 9 am
mm
Dir
 
Spd
km/h
Gust
km/h
Spd
kts
Gust
kts
27/11:30pm 16.6 11.4 -3.0 26 8.0 SSW 15 19 8 10 1022.1 - 0.0
27/11:00pm 16.2 11.6 -3.8 25 8.0 SSW 11 15 6 8 1022.2 - 0.0
27/10:30pm 17.0 12.1 -3.1 25 8.2 SSW 13 15 7 8 1022.2 - 0.0
27/10:00pm 18.1 13.0 -2.2 25 8.6 SSW 15 19 8 10 1022.1 - 0.0
27/09:30pm 18.5 13.8 -1.9 25 8.7 S 13 15 7 8 1021.9 - 0.0
27/09:00pm 19.6 15.0 -0.9 25 9.0 SSW 13 15 7 8 1022.0 1021.6 0.0
27/08:30pm 20.4 16.1 0.8 27 9.0 S 13 15 7 8 1021.7 - 0.0
27/08:00pm 21.5 17.2 1.2 26 9.4 S 13 17 7 9 1021.3 - 0.0
27/07:30pm 22.2 17.9 1.3 25 9.8 S 13 15 7 8 1021.0 - 0.0
27/07:00pm 23.5 18.9 1.8 24 10.3 S 15 17 8 9 1020.6 - 0.0
27/06:30pm 24.1 20.0 2.3 24 10.5 SSE 13 15 7 8 1020.3 - 0.0
27/06:00pm 25.6 21.0 1.7 21 11.5 S 15 24 8 13 1019.9 1019.5 0.0
27/05:30pm 26.6 22.0 1.8 20 12.1 S 15 22 8 12 1019.9 - 0.0
27/05:00pm 27.2 22.6 1.6 19 12.5 S 15 20 8 11 1019.9 - 0.0
27/04:30pm 27.3 22.8 2.4 20 12.3 S 15 22 8 12 1019.9 - 0.0
27/04:00pm 27.3 22.7 1.7 19 12.5 S 15 24 8 13 1020.1 - 0.0
27/03:30pm 27.5 24.1 1.8 19 12.6 S 9 17 5 9 1020.1 - 0.0
27/03:00pm 27.5 22.3 2.6 20 12.4 ESE 19 24 10 13 1020.2 1019.7 0.0
27/02:30pm 27.3 23.0 3.1 21 12.1 S 15 20 8 11 1020.7 - 0.0
27/02:00pm 27.3 23.3 3.1 21 12.1 SSE 13 19 7 10 1021.2 - 0.0
27/01:30pm 27.3 23.1 3.7 22 12.0 SSE 15 24 8 13 1021.6 - 0.0
27/01:00pm 26.4 22.3 4.2 24 11.3 SSE 15 24 8 13 1022.4 - 0.0
27/12:30pm 26.5 22.0 4.3 24 11.3 SSE 17 24 9 13 1023.1 - 0.0
27/12:00pm 25.4 20.9 4.0 25 10.7 S 17 24 9 13 1024.0 1023.5 0.0
27/11:30am 24.2 19.3 4.0 27 10.1 S 19 24 10 13 1024.5 - 0.0
27/11:00am 23.4 19.4 2.8 26 10.0 S 13 19 7 10 1024.9 - 0.0
27/10:30am 21.3 16.5 0.5 25 9.5 S 15 20 8 11 1025.1 - 0.0
27/10:00am 19.8 14.9 -0.2 26 8.9 S 15 20 8 11 1025.2 - 0.0
27/09:30am 17.9 13.0 -0.8 28 8.1 SSW 15 19 8 10 1025.2 - 0.0
27/09:00am 16.3 12.0 -1.3 30 7.4 SSW 11 15 6 8 1025.0 1024.6 0.0
27/08:30am 14.8 10.1 -1.7 32 6.8 SW 13 15 7 8 1024.7 - 0.0
27/08:00am 12.7 8.7 -2.0 36 5.9 WSW 9 13 5 7 1024.6 - 0.0
27/07:30am 10.9 6.5 -2.5 39 5.2 W 11 13 6 7 1024.3 - 0.0
27/07:00am 11.3 7.3 -2.5 38 5.4 WSW 9 13 5 7 1024.1 - 0.0
27/06:30am 10.6 6.2 -2.8 39 5.2 W 11 13 6 7 1023.6 - 0.0
27/06:00am 10.8 6.3 -2.9 38 5.2 WSW 11 13 6 7 1023.6 1023.2 0.0
27/05:30am 10.6 6.2 -2.8 39 5.2 WSW 11 15 6 8 1023.5 - 0.0
27/05:00am 10.2 6.1 -3.1 39 5.1 SW 9 13 5 7 1023.4 - 0.0
27/04:30am 11.4 6.6 -2.4 38 5.4 SW 13 13 7 7 1023.3 - 0.0
27/04:00am 11.7 8.0 -2.5 37 5.6 WSW 7 9 4 5 1023.5 - 0.0
27/03:30am 11.8 7.4 -2.4 37 5.6 SSW 11 15 6 8 1023.4 - 0.0
27/03:00am 12.2 8.1 -2.8 35 5.8 SW 9 11 5 6 1023.6 1023.2 0.0
27/02:30am 12.2 7.7 -3.2 34 6.0 SSW 11 13 6 7 1023.6 - 0.0
27/02:00am 12.7 7.8 -3.1 33 6.2 SSW 13 15 7 8 1023.6 - 0.0
27/01:30am 13.7 8.9 -2.7 32 6.5 SSW 13 15 7 8 1024.0 - 0.0
27/01:00am 13.9 8.7 -2.5 32 6.6 SSW 15 17 8 9 1024.2 - 0.0
27/12:30am 13.6 8.8 -2.3 33 6.4 SW 13 15 7 8 1024.4 - 0.0
27/12:00am 14.1 9.3 -2.3 32 6.6 SSW 13 15 7 8 1024.5 1024.1 0.0
 
Date/Time
EST
Temp
°C
App
Temp
°C
Dew
Point
Rel
Hum
%
Delta-T
°C
Wind Press
QNH
hPa
Press
MSL
hPa
Rain
since 9 am
mm
Dir
 
Spd
km/h
Gust
km/h
Spd
kts
Gust
kts
26/11:30pm 14.7 10.6 -2.7 30 7.0 SW 9 11 5 6 1024.6 - 0.0
26/11:00pm 16.2 14.0 -1.4 30 7.4 CALM 0 2 0 1 1024.6 - 0.0
26/10:30pm 16.6 11.5 -2.0 28 7.8 SW 15 17 8 9 1024.2 - 0.0
26/10:00pm 16.5 11.8 -2.0 28 7.7 SSW 13 15 7 8 1024.2 - 0.0
26/09:30pm 17.7 13.0 -2.0 26 8.3 S 13 15 7 8 1024.2 - 0.0
26/09:00pm 19.2 14.6 -1.3 25 8.8 S 13 15 7 8 1024.1 1023.6 0.0
26/08:30pm 20.2 15.6 -1.0 24 9.3 S 13 17 7 9 1023.8 - 0.0
26/08:00pm 21.1 16.2 -0.8 23 9.7 S 15 20 8 11 1023.6 - 0.0
26/07:30pm 22.1 16.4 -0.6 22 10.2 S 19 22 10 12 1023.2 - 0.0
26/07:00pm 22.9 17.0 -0.6 21 10.7 SSE 20 26 11 14 1022.8 - 0.0
26/06:30pm 23.7 17.5 -0.6 20 11.1 SSE 22 28 12 15 1022.5 - 0.0
26/06:00pm 24.7 17.7 -0.4 19 11.5 SSE 26 32 14 17 1022.2 1021.8 0.0
26/05:30pm 26.0 19.7 -0.9 17 12.4 SSE 22 33 12 18 1022.0 - 0.0
26/05:00pm 26.4 19.3 -1.4 16 12.8 S 26 32 14 17 1022.0 - 0.0
26/04:30pm 26.6 20.0 -0.4 17 12.6 S 24 33 13 18 1021.8 - 0.0
26/04:00pm 27.1 20.6 0.0 17 12.8 SSE 24 33 13 18 1021.8 - 0.0
26/03:30pm 27.3 21.0 1.7 19 12.5 S 24 32 13 17 1021.7 - 0.0
26/03:00pm 26.8 20.6 2.0 20 12.1 S 24 32 13 17 1021.8 1021.4 0.0
26/02:30pm 25.9 19.7 1.9 21 11.7 S 24 33 13 18 1022.0 - 0.0
26/02:00pm 26.9 21.0 4.0 23 11.6 SSE 24 33 13 18 1022.2 - 0.0
26/01:30pm 25.9 19.5 3.2 23 11.3 S 26 35 14 19 1022.6 - 0.0
26/01:00pm 26.0 20.0 3.3 23 11.3 SSE 24 33 13 18 1023.1 - 0.0
26/12:30pm 24.5 18.0 2.6 24 10.7 SSE 26 39 14 21 1023.7 - 0.0
26/12:00pm 23.7 17.6 2.5 25 10.2 S 24 32 13 17 1024.3 1023.9 0.0
26/11:30am 22.8 16.2 1.8 25 10.0 SSE 26 35 14 19 1024.8 - 0.0
26/11:00am 22.1 15.8 1.7 26 9.6 SSE 24 33 13 18 1025.3 - 0.0
26/10:30am 21.5 15.1 1.2 26 9.4 SSE 24 28 13 15 1025.6 - 0.0
26/10:00am 19.5 14.0 0.5 28 8.6 S 19 28 10 15 1025.5 - 0.0
26/09:30am 17.7 11.9 -0.1 30 7.8 S 20 24 11 13 1025.4 - 0.0
26/09:00am 16.6 10.4 -0.6 31 7.3 SSW 22 28 12 15 1025.2 1024.8 0.0
26/08:30am 15.6 10.7 -0.6 33 6.9 SSW 15 20 8 11 1024.9 - 0.0
26/08:00am 13.9 8.6 -0.9 36 6.2 SW 17 20 9 11 1024.6 - 0.0
26/07:30am 12.8 7.9 -0.8 39 5.6 SW 15 17 8 9 1024.1 - 0.0
26/07:00am 12.4 8.2 -1.1 39 5.5 SW 11 13 6 7 1023.8 - 0.0
26/06:30am 12.5 8.2 -1.4 38 5.6 SW 11 13 6 7 1023.5 - 0.0
26/06:00am 12.6 8.0 -1.3 38 5.6 SW 13 15 7 8 1023.2 1022.8 0.0
26/05:30am 12.8 8.5 -1.5 37 5.8 SW 11 13 6 7 1023.0 - 0.0
26/05:00am 14.1 9.2 -0.7 36 6.2 SSW 15 17 8 9 1022.9 - 0.0
26/04:30am 14.2 10.4 -1.0 35 6.3 SSW 9 13 5 7 1022.6 - 0.0
26/04:00am 14.7 10.4 -1.4 33 6.7 SW 11 13 6 7 1022.5 - 0.0
26/03:30am 15.2 10.6 -1.4 32 6.9 SW 13 15 7 8 1022.4 - 0.0
26/03:00am 15.5 11.3 -1.1 32 7.0 SW 11 13 6 7 1022.4 1022.0 0.0
26/02:30am 16.2 12.3 -1.4 30 7.4 SSW 9 11 5 6 1022.4 - 0.0
26/02:00am 16.4 12.2 -0.8 31 7.3 SW 11 13 6 7 1022.4 - 0.0
26/01:30am 15.9 12.0 -1.2 31 7.2 SW 9 11 5 6 1022.5 - 0.0
26/01:00am 15.8 11.5 -1.7 30 7.3 SW 11 13 6 7 1022.3 - 0.0
26/12:30am 16.1 11.4 -1.9 29 7.5 SW 13 15 7 8 1022.4 - 0.0
26/12:00am 16.9 13.0 -1.7 28 7.8 SW 9 11 5 6 1022.4 1022.0 0.0
 
Date/Time
EST
Temp
°C
App
Temp
°C
Dew
Point
Rel
Hum
%
Delta-T
°C
Wind Press
QNH
hPa
Press
MSL
hPa
Rain
since 9 am
mm
Dir
 
Spd
km/h
Gust
km/h
Spd
kts
Gust
kts
25/11:30pm 17.0 12.6 -2.1 27 8.0 SW 11 13 6 7 1022.4 - 0.0
25/11:00pm 17.4 13.0 -2.3 26 8.2 SW 11 13 6 7 1022.3 - 0.0
25/10:30pm 18.0 14.0 -2.3 25 8.5 SSW 9 13 5 7 1022.1 - 0.0
25/10:00pm 19.5 15.2 -1.6 24 9.1 S 11 13 6 7 1021.8 - 0.0
25/09:30pm 20.7 15.7 -1.2 23 9.6 SSW 15 17 8 9 1021.5 - 0.0
25/09:00pm 21.9 17.2 1.0 25 9.7 SSW 15 17 8 9 1021.2 1020.8 0.0
25/08:30pm 22.3 17.8 1.9 26 9.7 SSW 15 19 8 10 1020.9 - 0.0
25/08:00pm 22.4 19.7 3.5 29 9.2 SE 7 9 4 5 1020.4 - 0.0
25/07:30pm 23.7 20.7 4.1 28 9.8 SSE 9 11 5 6 1019.9 - 0.0
25/07:00pm 24.2 21.7 4.6 28 9.9 SE 7 9 4 5 1019.5 - 0.0
25/06:30pm 25.2 22.6 4.3 26 10.6 SE 7 9 4 5 1019.1 - 0.0
25/06:00pm 26.3 23.6 3.5 23 11.4 SE 7 9 4 5 1018.9 1018.5 0.0
25/05:30pm 27.3 24.4 4.4 23 11.7 E 9 13 5 7 1018.6 - 0.0
25/05:00pm 27.6 24.6 4.0 22 12.0 S 9 13 5 7 1018.3 - 0.0
25/04:30pm 27.7 25.6 4.1 22 12.1 ESE 4 9 2 5 1018.2 - 0.0

Other Formats:

Comma delimited format used in spreadsheet applications
http://www.bom.gov.au/fwo/IDQ60801/IDQ60801.94338.axf

JavaScript Object Notation format (JSON) in row-major order
http://www.bom.gov.au/fwo/IDQ60801/IDQ60801.94338.json